Meander River, Canada
Current Conditions -  °F | °C
As of 10:00 PM on Friday 24 Oct 2014 (Local Time) from CYOJ Reporting Station
Clear Clear  
Wind Chill: 30°   Ceiling: Unl
Heat Index: 30°   Visibility: 15mi
Dew Point: 27°   Wind: 0mph
Humidity: 86%   Direction: NA
Pressure: 29.85"   Gusts: NA
Location:  59.03°N, 117.68°W
Report Text: CYOJ 250400Z 00000KT 15SM SKC M01/M03 A2985 RMK LAST STFD OBS/NEXT 251300 UTC SLP130
Loading
Personal Weather Stations






























Interactive Weather Map
Tropical Storm Tracking
New forecast layout! Learn more

10-Day Weather Forecast

Advertisements
Track Severe Weather on mobile